sensor_id;sensor_type;location;lat;lon;timestamp;P1;durP1;ratioP1;P2;durP2;ratioP2
10701;SDS011;5402;50.004;8.246;2022-07-23T00:00:06;5.30;;;4.57;;
10701;SDS011;5402;50.004;8.246;2022-07-23T00:02:34;6.38;;;4.95;;
10701;SDS011;5402;50.004;8.246;2022-07-23T00:05:01;6.45;;;4.97;;
10701;SDS011;5402;50.004;8.246;2022-07-23T00:07:29;5.57;;;4.82;;
10701;SDS011;5402;50.004;8.246;2022-07-23T00:09:57;6.22;;;5.03;;
10701;SDS011;5402;50.004;8.246;2022-07-23T00:12:23;5.80;;;5.20;;
10701;SDS011;5402;50.004;8.246;2022-07-23T00:14:50;7.28;;;5.20;;
10701;SDS011;5402;50.004;8.246;2022-07-23T00:17:17;5.57;;;5.07;;
10701;SDS011;5402;50.004;8.246;2022-07-23T00:19:44;5.97;;;4.97;;
10701;SDS011;5402;50.004;8.246;2022-07-23T00:22:10;6.03;;;5.00;;
10701;SDS011;5402;50.004;8.246;2022-07-23T00:24:37;5.80;;;5.10;;
10701;SDS011;5402;50.004;8.246;2022-07-23T00:27:05;6.32;;;5.50;;
10701;SDS011;5402;50.004;8.246;2022-07-23T00:29:32;5.13;;;4.63;;
10701;SDS011;5402;50.004;8.246;2022-07-23T00:31:59;5.63;;;4.90;;
10701;SDS011;5402;50.004;8.246;2022-07-23T00:34:25;5.60;;;5.00;;
10701;SDS011;5402;50.004;8.246;2022-07-23T00:36:52;5.72;;;4.82;;
10701;SDS011;5402;50.004;8.246;2022-07-23T00:39:19;5.75;;;5.25;;
10701;SDS011;5402;50.004;8.246;2022-07-23T00:41:47;6.63;;;5.20;;
10701;SDS011;5402;50.004;8.246;2022-07-23T00:44:16;6.20;;;5.00;;
10701;SDS011;5402;50.004;8.246;2022-07-23T00:46:48;5.63;;;4.93;;
10701;SDS011;5402;50.004;8.246;2022-07-23T00:49:18;5.40;;;4.90;;
10701;SDS011;5402;50.004;8.246;2022-07-23T00:51:44;5.38;;;4.88;;
10701;SDS011;5402;50.004;8.246;2022-07-23T00:54:11;5.47;;;4.70;;
10701;SDS011;5402;50.004;8.246;2022-07-23T00:56:38;5.38;;;4.85;;
10701;SDS011;5402;50.004;8.246;2022-07-23T00:59:06;6.65;;;5.07;;
10701;SDS011;5402;50.004;8.246;2022-07-23T01:01:35;5.03;;;4.53;;
10701;SDS011;5402;50.004;8.246;2022-07-23T01:04:01;5.47;;;4.97;;
10701;SDS011;5402;50.004;8.246;2022-07-23T01:06:28;5.72;;;4.60;;
10701;SDS011;5402;50.004;8.246;2022-07-23T01:08:56;7.22;;;5.00;;
10701;SDS011;5402;50.004;8.246;2022-07-23T01:11:23;6.65;;;5.15;;
10701;SDS011;5402;50.004;8.246;2022-07-23T01:13:51;5.45;;;4.95;;
10701;SDS011;5402;50.004;8.246;2022-07-23T01:16:18;6.18;;;5.57;;
10701;SDS011;5402;50.004;8.246;2022-07-23T01:18:46;7.30;;;5.85;;
10701;SDS011;5402;50.004;8.246;2022-07-23T01:21:14;5.60;;;5.10;;
10701;SDS011;5402;50.004;8.246;2022-07-23T01:23:46;6.82;;;5.85;;
10701;SDS011;5402;50.004;8.246;2022-07-23T01:26:13;7.70;;;5.78;;
10701;SDS011;5402;50.004;8.246;2022-07-23T01:28:42;5.93;;;5.18;;
10701;SDS011;5402;50.004;8.246;2022-07-23T01:31:08;7.03;;;5.20;;
10701;SDS011;5402;50.004;8.246;2022-07-23T01:33:35;6.35;;;5.75;;
10701;SDS011;5402;50.004;8.246;2022-07-23T01:36:02;6.55;;;5.10;;
10701;SDS011;5402;50.004;8.246;2022-07-23T01:38:29;6.22;;;5.53;;
10701;SDS011;5402;50.004;8.246;2022-07-23T01:40:57;7.15;;;5.70;;
10701;SDS011;5402;50.004;8.246;2022-07-23T01:43:24;7.07;;;5.95;;
10701;SDS011;5402;50.004;8.246;2022-07-23T01:45:51;7.65;;;6.25;;
10701;SDS011;5402;50.004;8.246;2022-07-23T01:48:17;6.88;;;5.57;;
10701;SDS011;5402;50.004;8.246;2022-07-23T01:50:45;6.85;;;6.15;;
10701;SDS011;5402;50.004;8.246;2022-07-23T01:53:12;6.78;;;5.28;;
10701;SDS011;5402;50.004;8.246;2022-07-23T01:55:39;6.13;;;5.53;;
10701;SDS011;5402;50.004;8.246;2022-07-23T01:58:07;7.55;;;6.38;;
10701;SDS011;5402;50.004;8.246;2022-07-23T02:00:33;9.98;;;6.30;;
10701;SDS011;5402;50.004;8.246;2022-07-23T02:03:00;7.57;;;6.30;;
10701;SDS011;5402;50.004;8.246;2022-07-23T02:05:27;6.97;;;5.63;;
10701;SDS011;5402;50.004;8.246;2022-07-23T02:07:55;6.80;;;5.50;;
10701;SDS011;5402;50.004;8.246;2022-07-23T02:10:22;7.22;;;5.75;;
10701;SDS011;5402;50.004;8.246;2022-07-23T02:12:49;6.90;;;5.70;;
10701;SDS011;5402;50.004;8.246;2022-07-23T02:15:17;6.13;;;5.53;;
10701;SDS011;5402;50.004;8.246;2022-07-23T02:17:44;8.32;;;5.78;;
10701;SDS011;5402;50.004;8.246;2022-07-23T02:20:11;9.27;;;5.57;;
10701;SDS011;5402;50.004;8.246;2022-07-23T02:22:37;7.03;;;6.13;;
10701;SDS011;5402;50.004;8.246;2022-07-23T02:25:05;8.52;;;6.18;;
10701;SDS011;5402;50.004;8.246;2022-07-23T02:27:33;7.95;;;6.15;;
10701;SDS011;5402;50.004;8.246;2022-07-23T02:30:02;6.40;;;5.60;;
10701;SDS011;5402;50.004;8.246;2022-07-23T02:32:31;8.30;;;6.32;;
10701;SDS011;5402;50.004;8.246;2022-07-23T02:34:58;6.93;;;6.07;;
10701;SDS011;5402;50.004;8.246;2022-07-23T02:37:24;8.82;;;5.80;;
10701;SDS011;5402;50.004;8.246;2022-07-23T02:39:51;7.45;;;5.93;;
10701;SDS011;5402;50.004;8.246;2022-07-23T02:42:18;6.80;;;5.68;;
10701;SDS011;5402;50.004;8.246;2022-07-23T02:44:45;8.43;;;6.07;;
10701;SDS011;5402;50.004;8.246;2022-07-23T02:47:11;7.82;;;5.47;;
10701;SDS011;5402;50.004;8.246;2022-07-23T02:49:42;6.43;;;5.70;;
10701;SDS011;5402;50.004;8.246;2022-07-23T02:52:08;6.35;;;5.55;;
10701;SDS011;5402;50.004;8.246;2022-07-23T02:54:35;10.07;;;6.00;;
10701;SDS011;5402;50.004;8.246;2022-07-23T02:57:03;8.23;;;6.28;;
10701;SDS011;5402;50.004;8.246;2022-07-23T02:59:29;7.43;;;5.72;;
10701;SDS011;5402;50.004;8.246;2022-07-23T03:01:57;7.50;;;5.70;;
10701;SDS011;5402;50.004;8.246;2022-07-23T03:04:23;7.03;;;5.93;;
10701;SDS011;5402;50.004;8.246;2022-07-23T03:06:51;6.80;;;5.80;;
10701;SDS011;5402;50.004;8.246;2022-07-23T03:09:18;5.85;;;5.30;;
10701;SDS011;5402;50.004;8.246;2022-07-23T03:11:45;7.47;;;6.10;;
10701;SDS011;5402;50.004;8.246;2022-07-23T03:14:11;7.32;;;5.90;;
10701;SDS011;5402;50.004;8.246;2022-07-23T03:16:38;7.90;;;6.43;;
10701;SDS011;5402;50.004;8.246;2022-07-23T03:19:06;7.55;;;6.00;;
10701;SDS011;5402;50.004;8.246;2022-07-23T03:21:33;7.97;;;5.97;;
10701;SDS011;5402;50.004;8.246;2022-07-23T03:24:05;7.47;;;6.15;;
10701;SDS011;5402;50.004;8.246;2022-07-23T03:26:33;9.30;;;5.60;;
10701;SDS011;5402;50.004;8.246;2022-07-23T03:29:01;7.32;;;6.10;;
10701;SDS011;5402;50.004;8.246;2022-07-23T03:31:28;7.95;;;5.55;;
10701;SDS011;5402;50.004;8.246;2022-07-23T03:33:56;9.38;;;6.10;;
10701;SDS011;5402;50.004;8.246;2022-07-23T03:36:22;7.97;;;5.63;;
10701;SDS011;5402;50.004;8.246;2022-07-23T03:38:49;6.00;;;5.40;;
10701;SDS011;5402;50.004;8.246;2022-07-23T03:41:17;8.30;;;6.30;;
10701;SDS011;5402;50.004;8.246;2022-07-23T03:43:44;6.77;;;5.83;;
10701;SDS011;5402;50.004;8.246;2022-07-23T03:46:10;7.20;;;6.00;;
10701;SDS011;5402;50.004;8.246;2022-07-23T03:48:37;7.80;;;7.00;;
10701;SDS011;5402;50.004;8.246;2022-07-23T03:51:04;6.72;;;5.57;;
10701;SDS011;5402;50.004;8.246;2022-07-23T03:53:32;6.67;;;5.90;;
10701;SDS011;5402;50.004;8.246;2022-07-23T03:55:59;8.68;;;5.97;;
10701;SDS011;5402;50.004;8.246;2022-07-23T03:58:27;6.23;;;5.27;;
10701;SDS011;5402;50.004;8.246;2022-07-23T04:00:54;7.30;;;6.10;;
10701;SDS011;5402;50.004;8.246;2022-07-23T04:03:21;6.80;;;5.63;;
10701;SDS011;5402;50.004;8.246;2022-07-23T04:05:47;6.65;;;5.55;;
10701;SDS011;5402;50.004;8.246;2022-07-23T04:08:14;6.07;;;5.47;;
10701;SDS011;5402;50.004;8.246;2022-07-23T04:10:41;6.90;;;5.90;;
10701;SDS011;5402;50.004;8.246;2022-07-23T04:13:08;7.60;;;6.00;;
10701;SDS011;5402;50.004;8.246;2022-07-23T04:15:36;6.82;;;5.63;;
10701;SDS011;5402;50.004;8.246;2022-07-23T04:18:02;8.07;;;6.63;;
10701;SDS011;5402;50.004;8.246;2022-07-23T04:20:29;6.67;;;5.93;;
10701;SDS011;5402;50.004;8.246;2022-07-23T04:22:56;6.87;;;6.07;;
10701;SDS011;5402;50.004;8.246;2022-07-23T04:25:23;9.87;;;6.87;;
10701;SDS011;5402;50.004;8.246;2022-07-23T04:27:49;8.38;;;5.95;;
10701;SDS011;5402;50.004;8.246;2022-07-23T04:30:17;10.50;;;7.20;;
10701;SDS011;5402;50.004;8.246;2022-07-23T04:32:45;7.17;;;6.40;;
10701;SDS011;5402;50.004;8.246;2022-07-23T04:35:12;7.80;;;6.73;;
10701;SDS011;5402;50.004;8.246;2022-07-23T04:37:39;9.47;;;7.17;;
10701;SDS011;5402;50.004;8.246;2022-07-23T04:40:06;7.80;;;6.50;;
10701;SDS011;5402;50.004;8.246;2022-07-23T04:42:33;7.93;;;6.55;;
10701;SDS011;5402;50.004;8.246;2022-07-23T04:45:00;9.25;;;7.05;;
10701;SDS011;5402;50.004;8.246;2022-07-23T04:47:26;10.57;;;6.50;;
10701;SDS011;5402;50.004;8.246;2022-07-23T04:49:54;9.30;;;6.80;;
10701;SDS011;5402;50.004;8.246;2022-07-23T04:52:21;7.37;;;6.47;;
10701;SDS011;5402;50.004;8.246;2022-07-23T04:54:48;8.40;;;6.87;;
10701;SDS011;5402;50.004;8.246;2022-07-23T04:57:15;7.97;;;6.80;;
10701;SDS011;5402;50.004;8.246;2022-07-23T04:59:42;9.13;;;7.43;;
10701;SDS011;5402;50.004;8.246;2022-07-23T05:02:09;9.63;;;6.93;;
10701;SDS011;5402;50.004;8.246;2022-07-23T05:04:35;9.37;;;7.47;;
10701;SDS011;5402;50.004;8.246;2022-07-23T05:07:05;9.32;;;6.75;;
10701;SDS011;5402;50.004;8.246;2022-07-23T05:09:31;8.80;;;7.67;;
10701;SDS011;5402;50.004;8.246;2022-07-23T05:11:59;8.70;;;7.47;;
10701;SDS011;5402;50.004;8.246;2022-07-23T05:14:26;9.60;;;7.53;;
10701;SDS011;5402;50.004;8.246;2022-07-23T05:16:53;9.93;;;7.37;;
10701;SDS011;5402;50.004;8.246;2022-07-23T05:19:20;9.43;;;7.50;;
10701;SDS011;5402;50.004;8.246;2022-07-23T05:21:47;9.03;;;6.93;;
10701;SDS011;5402;50.004;8.246;2022-07-23T05:24:15;7.65;;;6.85;;
10701;SDS011;5402;50.004;8.246;2022-07-23T05:26:42;8.53;;;7.63;;
10701;SDS011;5402;50.004;8.246;2022-07-23T05:29:09;8.48;;;7.18;;
10701;SDS011;5402;50.004;8.246;2022-07-23T05:31:35;10.60;;;7.80;;
10701;SDS011;5402;50.004;8.246;2022-07-23T05:34:02;11.73;;;7.60;;
10701;SDS011;5402;50.004;8.246;2022-07-23T05:36:30;9.93;;;8.13;;
10701;SDS011;5402;50.004;8.246;2022-07-23T05:38:57;9.37;;;7.70;;
10701;SDS011;5402;50.004;8.246;2022-07-23T05:41:25;9.73;;;7.30;;
10701;SDS011;5402;50.004;8.246;2022-07-23T05:43:52;9.77;;;7.30;;
10701;SDS011;5402;50.004;8.246;2022-07-23T05:46:19;9.07;;;8.15;;
10701;SDS011;5402;50.004;8.246;2022-07-23T05:48:45;11.00;;;8.00;;
10701;SDS011;5402;50.004;8.246;2022-07-23T05:51:18;8.53;;;7.47;;
10701;SDS011;5402;50.004;8.246;2022-07-23T05:53:45;9.70;;;8.10;;
10701;SDS011;5402;50.004;8.246;2022-07-23T05:56:14;8.38;;;7.47;;
10701;SDS011;5402;50.004;8.246;2022-07-23T05:58:42;9.63;;;7.60;;
10701;SDS011;5402;50.004;8.246;2022-07-23T06:01:09;10.30;;;7.70;;
10701;SDS011;5402;50.004;8.246;2022-07-23T06:03:36;8.07;;;7.22;;
10701;SDS011;5402;50.004;8.246;2022-07-23T06:06:03;8.98;;;7.28;;
10701;SDS011;5402;50.004;8.246;2022-07-23T06:08:30;9.70;;;7.40;;
10701;SDS011;5402;50.004;8.246;2022-07-23T06:10:57;8.65;;;6.97;;
10701;SDS011;5402;50.004;8.246;2022-07-23T06:13:24;8.80;;;7.28;;
10701;SDS011;5402;50.004;8.246;2022-07-23T06:15:52;9.90;;;7.53;;
10701;SDS011;5402;50.004;8.246;2022-07-23T06:18:19;8.20;;;7.03;;
10701;SDS011;5402;50.004;8.246;2022-07-23T06:20:46;7.95;;;6.45;;
10701;SDS011;5402;50.004;8.246;2022-07-23T06:23:12;8.73;;;6.40;;
10701;SDS011;5402;50.004;8.246;2022-07-23T06:25:39;6.85;;;5.78;;
10701;SDS011;5402;50.004;8.246;2022-07-23T06:28:06;7.15;;;6.07;;
10701;SDS011;5402;50.004;8.246;2022-07-23T06:30:33;6.70;;;5.68;;
10701;SDS011;5402;50.004;8.246;2022-07-23T06:33:01;7.82;;;6.40;;
10701;SDS011;5402;50.004;8.246;2022-07-23T06:35:28;6.82;;;5.85;;
10701;SDS011;5402;50.004;8.246;2022-07-23T06:37:55;6.30;;;5.70;;
10701;SDS011;5402;50.004;8.246;2022-07-23T06:40:21;8.10;;;6.10;;
10701;SDS011;5402;50.004;8.246;2022-07-23T06:42:48;6.68;;;5.57;;
10701;SDS011;5402;50.004;8.246;2022-07-23T06:45:15;6.55;;;5.85;;
10701;SDS011;5402;50.004;8.246;2022-07-23T06:47:43;6.90;;;6.20;;
10701;SDS011;5402;50.004;8.246;2022-07-23T06:50:11;7.93;;;5.97;;
10701;SDS011;5402;50.004;8.246;2022-07-23T06:52:38;7.60;;;6.10;;
10701;SDS011;5402;50.004;8.246;2022-07-23T06:55:05;6.45;;;5.70;;
10701;SDS011;5402;50.004;8.246;2022-07-23T06:57:32;7.70;;;6.32;;
10701;SDS011;5402;50.004;8.246;2022-07-23T06:59:59;5.97;;;5.38;;
10701;SDS011;5402;50.004;8.246;2022-07-23T07:02:26;6.88;;;5.93;;
10701;SDS011;5402;50.004;8.246;2022-07-23T07:04:52;9.05;;;5.85;;
10701;SDS011;5402;50.004;8.246;2022-07-23T07:07:21;7.60;;;6.47;;
10701;SDS011;5402;50.004;8.246;2022-07-23T07:09:55;6.25;;;5.65;;
10701;SDS011;5402;50.004;8.246;2022-07-23T07:12:21;6.85;;;5.35;;
10701;SDS011;5402;50.004;8.246;2022-07-23T07:14:48;5.80;;;5.20;;
10701;SDS011;5402;50.004;8.246;2022-07-23T07:17:15;7.35;;;6.05;;
10701;SDS011;5402;50.004;8.246;2022-07-23T07:19:42;7.47;;;5.68;;
10701;SDS011;5402;50.004;8.246;2022-07-23T07:22:09;7.05;;;5.78;;
10701;SDS011;5402;50.004;8.246;2022-07-23T07:24:37;7.28;;;6.05;;
10701;SDS011;5402;50.004;8.246;2022-07-23T07:27:03;6.43;;;5.82;;
10701;SDS011;5402;50.004;8.246;2022-07-23T07:29:31;7.57;;;5.85;;
10701;SDS011;5402;50.004;8.246;2022-07-23T07:31:58;8.05;;;5.90;;
10701;SDS011;5402;50.004;8.246;2022-07-23T07:34:25;8.70;;;5.90;;
10701;SDS011;5402;50.004;8.246;2022-07-23T07:36:52;7.78;;;6.03;;
10701;SDS011;5402;50.004;8.246;2022-07-23T07:39:19;9.88;;;6.00;;
10701;SDS011;5402;50.004;8.246;2022-07-23T07:41:48;7.35;;;6.20;;
10701;SDS011;5402;50.004;8.246;2022-07-23T07:44:16;6.95;;;6.25;;
10701;SDS011;5402;50.004;8.246;2022-07-23T07:46:43;7.50;;;6.28;;
10701;SDS011;5402;50.004;8.246;2022-07-23T07:49:09;8.05;;;6.43;;
10701;SDS011;5402;50.004;8.246;2022-07-23T07:51:36;9.18;;;6.55;;
10701;SDS011;5402;50.004;8.246;2022-07-23T07:54:03;8.10;;;5.80;;
10701;SDS011;5402;50.004;8.246;2022-07-23T07:56:30;8.15;;;7.00;;
10701;SDS011;5402;50.004;8.246;2022-07-23T07:58:58;7.10;;;5.57;;
10701;SDS011;5402;50.004;8.246;2022-07-23T08:01:26;6.38;;;5.63;;
10701;SDS011;5402;50.004;8.246;2022-07-23T08:03:52;8.82;;;6.35;;
10701;SDS011;5402;50.004;8.246;2022-07-23T08:06:19;6.63;;;5.93;;
10701;SDS011;5402;50.004;8.246;2022-07-23T08:08:46;7.68;;;5.53;;
10701;SDS011;5402;50.004;8.246;2022-07-23T08:11:13;6.82;;;6.22;;
10701;SDS011;5402;50.004;8.246;2022-07-23T08:13:39;8.80;;;6.55;;
10701;SDS011;5402;50.004;8.246;2022-07-23T08:16:07;7.97;;;5.75;;
10701;SDS011;5402;50.004;8.246;2022-07-23T08:18:34;6.50;;;5.80;;
10701;SDS011;5402;50.004;8.246;2022-07-23T08:21:01;7.53;;;6.15;;
10701;SDS011;5402;50.004;8.246;2022-07-23T08:23:29;7.20;;;5.57;;
10701;SDS011;5402;50.004;8.246;2022-07-23T08:25:57;6.60;;;5.75;;
10701;SDS011;5402;50.004;8.246;2022-07-23T08:28:26;6.88;;;5.40;;
10701;SDS011;5402;50.004;8.246;2022-07-23T08:30:53;7.18;;;6.10;;
10701;SDS011;5402;50.004;8.246;2022-07-23T08:33:21;5.90;;;5.30;;
10701;SDS011;5402;50.004;8.246;2022-07-23T08:35:48;8.07;;;5.47;;
10701;SDS011;5402;50.004;8.246;2022-07-23T08:38:18;6.15;;;5.35;;
10701;SDS011;5402;50.004;8.246;2022-07-23T08:40:47;7.38;;;5.80;;
10701;SDS011;5402;50.004;8.246;2022-07-23T08:43:15;6.57;;;5.28;;
10701;SDS011;5402;50.004;8.246;2022-07-23T08:45:46;5.55;;;5.03;;
10701;SDS011;5402;50.004;8.246;2022-07-23T08:48:15;7.00;;;5.50;;
10701;SDS011;5402;50.004;8.246;2022-07-23T08:50:44;5.40;;;4.72;;
10701;SDS011;5402;50.004;8.246;2022-07-23T08:53:12;6.55;;;4.97;;
10701;SDS011;5402;50.004;8.246;2022-07-23T08:55:40;5.50;;;4.93;;
10701;SDS011;5402;50.004;8.246;2022-07-23T08:58:09;6.05;;;4.60;;
10701;SDS011;5402;50.004;8.246;2022-07-23T09:00:36;5.28;;;4.78;;
10701;SDS011;5402;50.004;8.246;2022-07-23T09:03:03;7.35;;;5.50;;
10701;SDS011;5402;50.004;8.246;2022-07-23T09:05:30;6.38;;;4.88;;
10701;SDS011;5402;50.004;8.246;2022-07-23T09:08:09;6.00;;;5.32;;
10701;SDS011;5402;50.004;8.246;2022-07-23T09:10:47;5.32;;;4.82;;
10701;SDS011;5402;50.004;8.246;2022-07-23T09:13:23;5.20;;;4.70;;
10701;SDS011;5402;50.004;8.246;2022-07-23T09:15:52;5.95;;;5.05;;
10701;SDS011;5402;50.004;8.246;2022-07-23T09:18:27;5.68;;;4.68;;
10701;SDS011;5402;50.004;8.246;2022-07-23T09:21:04;6.13;;;5.00;;
10701;SDS011;5402;50.004;8.246;2022-07-23T09:23:37;6.05;;;4.75;;
10701;SDS011;5402;50.004;8.246;2022-07-23T09:26:16;5.22;;;4.72;;
10701;SDS011;5402;50.004;8.246;2022-07-23T09:28:49;5.07;;;4.53;;
10701;SDS011;5402;50.004;8.246;2022-07-23T09:31:18;5.25;;;4.75;;
10701;SDS011;5402;50.004;8.246;2022-07-23T09:33:45;5.93;;;5.10;;
10701;SDS011;5402;50.004;8.246;2022-07-23T09:36:12;5.60;;;5.05;;
10701;SDS011;5402;50.004;8.246;2022-07-23T09:38:48;5.55;;;4.85;;
10701;SDS011;5402;50.004;8.246;2022-07-23T09:41:16;7.18;;;4.30;;
10701;SDS011;5402;50.004;8.246;2022-07-23T09:43:43;4.93;;;4.40;;
10701;SDS011;5402;50.004;8.246;2022-07-23T09:46:17;4.40;;;4.00;;
10701;SDS011;5402;50.004;8.246;2022-07-23T09:48:45;5.00;;;3.90;;
10701;SDS011;5402;50.004;8.246;2022-07-23T09:51:13;5.07;;;4.57;;
10701;SDS011;5402;50.004;8.246;2022-07-23T09:53:42;5.25;;;4.60;;
10701;SDS011;5402;50.004;8.246;2022-07-23T09:56:10;5.45;;;4.95;;
10701;SDS011;5402;50.004;8.246;2022-07-23T09:58:40;5.28;;;4.60;;
10701;SDS011;5402;50.004;8.246;2022-07-23T10:01:12;4.60;;;4.20;;
10701;SDS011;5402;50.004;8.246;2022-07-23T10:03:40;5.07;;;4.50;;
10701;SDS011;5402;50.004;8.246;2022-07-23T10:06:07;5.25;;;4.75;;
10701;SDS011;5402;50.004;8.246;2022-07-23T10:08:35;5.88;;;5.28;;
10701;SDS011;5402;50.004;8.246;2022-07-23T10:11:05;6.05;;;5.05;;
10701;SDS011;5402;50.004;8.246;2022-07-23T10:13:34;6.00;;;4.53;;
10701;SDS011;5402;50.004;8.246;2022-07-23T10:16:19;4.78;;;4.38;;
10701;SDS011;5402;50.004;8.246;2022-07-23T10:18:47;5.05;;;4.65;;
10701;SDS011;5402;50.004;8.246;2022-07-23T10:21:16;5.03;;;4.53;;
10701;SDS011;5402;50.004;8.246;2022-07-23T10:23:51;6.45;;;4.50;;
10701;SDS011;5402;50.004;8.246;2022-07-23T10:26:31;5.95;;;5.35;;
10701;SDS011;5402;50.004;8.246;2022-07-23T10:29:12;5.80;;;5.30;;
10701;SDS011;5402;50.004;8.246;2022-07-23T10:31:47;5.63;;;5.05;;
10701;SDS011;5402;50.004;8.246;2022-07-23T10:34:21;5.82;;;5.20;;
10701;SDS011;5402;50.004;8.246;2022-07-23T10:36:58;5.55;;;5.05;;
10701;SDS011;5402;50.004;8.246;2022-07-23T10:39:32;5.70;;;5.10;;
10701;SDS011;5402;50.004;8.246;2022-07-23T10:42:08;6.10;;;5.25;;
10701;SDS011;5402;50.004;8.246;2022-07-23T10:44:40;6.30;;;5.07;;
10701;SDS011;5402;50.004;8.246;2022-07-23T10:47:09;6.43;;;5.18;;
10701;SDS011;5402;50.004;8.246;2022-07-23T10:50:19;6.30;;;4.90;;
10701;SDS011;5402;50.004;8.246;2022-07-23T10:55:44;6.70;;;5.18;;
10701;SDS011;5402;50.004;8.246;2022-07-23T10:58:17;5.40;;;4.90;;
10701;SDS011;5402;50.004;8.246;2022-07-23T11:00:46;5.75;;;5.03;;
10701;SDS011;5402;50.004;8.246;2022-07-23T11:03:30;5.88;;;4.93;;
10701;SDS011;5402;50.004;8.246;2022-07-23T11:06:00;5.82;;;5.22;;
10701;SDS011;5402;50.004;8.246;2022-07-23T11:08:27;7.82;;;5.10;;
10701;SDS011;5402;50.004;8.246;2022-07-23T11:10:56;6.53;;;5.38;;
10701;SDS011;5402;50.004;8.246;2022-07-23T11:13:42;7.47;;;5.10;;
10701;SDS011;5402;50.004;8.246;2022-07-23T11:16:17;5.90;;;5.30;;
10701;SDS011;5402;50.004;8.246;2022-07-23T11:19:05;5.70;;;5.20;;
10701;SDS011;5402;50.004;8.246;2022-07-23T11:21:46;6.65;;;5.20;;
10701;SDS011;5402;50.004;8.246;2022-07-23T11:24:20;5.97;;;5.18;;
10701;SDS011;5402;50.004;8.246;2022-07-23T11:29:40;6.35;;;5.50;;
10701;SDS011;5402;50.004;8.246;2022-07-23T11:32:22;5.97;;;5.03;;
10701;SDS011;5402;50.004;8.246;2022-07-23T11:35:03;5.50;;;5.00;;
10701;SDS011;5402;50.004;8.246;2022-07-23T11:37:45;5.32;;;4.82;;
10701;SDS011;5402;50.004;8.246;2022-07-23T11:40:13;6.30;;;5.05;;
10701;SDS011;5402;50.004;8.246;2022-07-23T11:42:51;5.43;;;4.70;;
10701;SDS011;5402;50.004;8.246;2022-07-23T11:45:19;5.22;;;4.75;;
10701;SDS011;5402;50.004;8.246;2022-07-23T11:47:47;5.50;;;5.00;;
10701;SDS011;5402;50.004;8.246;2022-07-23T11:50:14;6.03;;;4.88;;
10701;SDS011;5402;50.004;8.246;2022-07-23T11:52:40;5.25;;;4.72;;
10701;SDS011;5402;50.004;8.246;2022-07-23T11:55:08;5.13;;;4.63;;
10701;SDS011;5402;50.004;8.246;2022-07-23T11:57:37;5.70;;;4.93;;
10701;SDS011;5402;50.004;8.246;2022-07-23T12:00:07;5.10;;;4.63;;
10701;SDS011;5402;50.004;8.246;2022-07-23T12:02:37;5.10;;;4.50;;
10701;SDS011;5402;50.004;8.246;2022-07-23T12:05:07;5.28;;;4.53;;
10701;SDS011;5402;50.004;8.246;2022-07-23T12:07:37;7.57;;;4.95;;
10701;SDS011;5402;50.004;8.246;2022-07-23T12:10:08;6.20;;;4.85;;
10701;SDS011;5402;50.004;8.246;2022-07-23T12:12:39;6.47;;;4.70;;
10701;SDS011;5402;50.004;8.246;2022-07-23T12:15:08;5.78;;;4.90;;
10701;SDS011;5402;50.004;8.246;2022-07-23T12:17:36;6.00;;;4.78;;
10701;SDS011;5402;50.004;8.246;2022-07-23T12:20:08;5.70;;;5.20;;
10701;SDS011;5402;50.004;8.246;2022-07-23T12:22:39;6.35;;;4.75;;
10701;SDS011;5402;50.004;8.246;2022-07-23T12:25:07;5.00;;;4.60;;
10701;SDS011;5402;50.004;8.246;2022-07-23T12:27:36;4.75;;;4.35;;
10701;SDS011;5402;50.004;8.246;2022-07-23T12:30:20;4.85;;;4.43;;
10701;SDS011;5402;50.004;8.246;2022-07-23T12:32:49;5.00;;;4.60;;
10701;SDS011;5402;50.004;8.246;2022-07-23T12:35:19;4.95;;;4.50;;
10701;SDS011;5402;50.004;8.246;2022-07-23T12:37:48;5.20;;;4.80;;
10701;SDS011;5402;50.004;8.246;2022-07-23T12:40:18;5.65;;;5.05;;
10701;SDS011;5402;50.004;8.246;2022-07-23T12:42:50;5.55;;;5.03;;
10701;SDS011;5402;50.004;8.246;2022-07-23T12:45:18;4.72;;;4.32;;
10701;SDS011;5402;50.004;8.246;2022-07-23T12:47:56;5.03;;;4.53;;
10701;SDS011;5402;50.004;8.246;2022-07-23T12:53:21;5.07;;;4.63;;
10701;SDS011;5402;50.004;8.246;2022-07-23T12:55:49;6.68;;;4.68;;
10701;SDS011;5402;50.004;8.246;2022-07-23T12:58:17;5.68;;;5.00;;
10701;SDS011;5402;50.004;8.246;2022-07-23T13:01:00;5.30;;;4.80;;
10701;SDS011;5402;50.004;8.246;2022-07-23T13:03:30;5.10;;;4.70;;
10701;SDS011;5402;50.004;8.246;2022-07-23T13:06:01;7.03;;;5.60;;
10701;SDS011;5402;50.004;8.246;2022-07-23T13:08:29;5.47;;;4.97;;
10701;SDS011;5402;50.004;8.246;2022-07-23T13:10:59;5.53;;;5.00;;
10701;SDS011;5402;50.004;8.246;2022-07-23T13:13:26;5.55;;;4.97;;
10701;SDS011;5402;50.004;8.246;2022-07-23T13:15:55;5.65;;;5.00;;
10701;SDS011;5402;50.004;8.246;2022-07-23T13:18:22;5.43;;;4.93;;
10701;SDS011;5402;50.004;8.246;2022-07-23T13:20:50;5.60;;;5.00;;
10701;SDS011;5402;50.004;8.246;2022-07-23T13:23:18;6.15;;;5.07;;
10701;SDS011;5402;50.004;8.246;2022-07-23T13:25:45;6.75;;;5.32;;
10701;SDS011;5402;50.004;8.246;2022-07-23T13:28:12;5.25;;;4.78;;
10701;SDS011;5402;50.004;8.246;2022-07-23T13:30:39;5.50;;;5.00;;
10701;SDS011;5402;50.004;8.246;2022-07-23T13:33:06;5.88;;;5.30;;
10701;SDS011;5402;50.004;8.246;2022-07-23T13:35:34;6.72;;;5.72;;
10701;SDS011;5402;50.004;8.246;2022-07-23T13:38:02;5.40;;;4.90;;
10701;SDS011;5402;50.004;8.246;2022-07-23T13:40:30;5.70;;;5.03;;
10701;SDS011;5402;50.004;8.246;2022-07-23T13:42:57;6.78;;;5.35;;
10701;SDS011;5402;50.004;8.246;2022-07-23T13:45:23;5.82;;;5.30;;
10701;SDS011;5402;50.004;8.246;2022-07-23T13:47:50;6.03;;;5.43;;
10701;SDS011;5402;50.004;8.246;2022-07-23T13:50:17;5.88;;;5.28;;
10701;SDS011;5402;50.004;8.246;2022-07-23T13:52:44;5.45;;;4.95;;
10701;SDS011;5402;50.004;8.246;2022-07-23T13:55:10;6.20;;;5.25;;
10701;SDS011;5402;50.004;8.246;2022-07-23T13:57:39;6.32;;;5.25;;
10701;SDS011;5402;50.004;8.246;2022-07-23T14:00:06;5.88;;;5.28;;
10701;SDS011;5402;50.004;8.246;2022-07-23T14:02:35;8.23;;;5.35;;
10701;SDS011;5402;50.004;8.246;2022-07-23T14:05:03;5.75;;;5.25;;
10701;SDS011;5402;50.004;8.246;2022-07-23T14:07:31;5.68;;;5.18;;
10701;SDS011;5402;50.004;8.246;2022-07-23T14:09:57;6.28;;;5.32;;
10701;SDS011;5402;50.004;8.246;2022-07-23T14:12:24;6.03;;;5.30;;
10701;SDS011;5402;50.004;8.246;2022-07-23T14:14:52;7.65;;;4.82;;
10701;SDS011;5402;50.004;8.246;2022-07-23T14:17:19;5.72;;;5.20;;
10701;SDS011;5402;50.004;8.246;2022-07-23T14:19:46;7.68;;;6.00;;
10701;SDS011;5402;50.004;8.246;2022-07-23T14:22:14;5.78;;;5.25;;
10701;SDS011;5402;50.004;8.246;2022-07-23T14:24:41;7.95;;;5.05;;
10701;SDS011;5402;50.004;8.246;2022-07-23T14:27:08;7.28;;;4.82;;
10701;SDS011;5402;50.004;8.246;2022-07-23T14:29:34;5.53;;;4.78;;
10701;SDS011;5402;50.004;8.246;2022-07-23T14:32:03;5.97;;;5.38;;
10701;SDS011;5402;50.004;8.246;2022-07-23T14:34:30;5.43;;;4.90;;
10701;SDS011;5402;50.004;8.246;2022-07-23T14:36:57;6.03;;;5.05;;
10701;SDS011;5402;50.004;8.246;2022-07-23T14:39:25;6.43;;;4.93;;
10701;SDS011;5402;50.004;8.246;2022-07-23T14:41:51;5.28;;;4.50;;
10701;SDS011;5402;50.004;8.246;2022-07-23T14:44:20;5.68;;;5.00;;
10701;SDS011;5402;50.004;8.246;2022-07-23T14:46:46;5.65;;;4.75;;
10701;SDS011;5402;50.004;8.246;2022-07-23T14:49:15;5.22;;;4.80;;
10701;SDS011;5402;50.004;8.246;2022-07-23T14:51:41;5.35;;;4.88;;
10701;SDS011;5402;50.004;8.246;2022-07-23T14:54:09;8.20;;;4.88;;
10701;SDS011;5402;50.004;8.246;2022-07-23T14:56:36;5.15;;;4.65;;
10701;SDS011;5402;50.004;8.246;2022-07-23T14:59:03;4.93;;;4.53;;
10701;SDS011;5402;50.004;8.246;2022-07-23T15:01:31;5.40;;;4.90;;
10701;SDS011;5402;50.004;8.246;2022-07-23T15:03:58;4.97;;;4.57;;
10701;SDS011;5402;50.004;8.246;2022-07-23T15:06:28;4.60;;;4.18;;
10701;SDS011;5402;50.004;8.246;2022-07-23T15:08:55;4.82;;;4.43;;
10701;SDS011;5402;50.004;8.246;2022-07-23T15:11:21;5.00;;;4.60;;
10701;SDS011;5402;50.004;8.246;2022-07-23T15:13:48;5.80;;;4.75;;
10701;SDS011;5402;50.004;8.246;2022-07-23T15:16:15;6.28;;;4.40;;